sensor_id;sensor_type;location;lat;lon;timestamp;pressure;altitude;pressure_sealevel;temperature;humidity
20793;BME280;10556;-33.662;151.094;2022-12-07T00:00:30;98240.38;;;24.61;68.02
20793;BME280;10556;-33.662;151.094;2022-12-07T00:05:32;98247.47;;;24.80;64.44
20793;BME280;10556;-33.662;151.094;2022-12-07T00:10:37;98250.66;;;25.03;67.52
20793;BME280;10556;-33.662;151.094;2022-12-07T00:15:40;98233.00;;;25.18;64.78
20793;BME280;10556;-33.662;151.094;2022-12-07T00:20:43;98214.81;;;25.32;61.88
20793;BME280;10556;-33.662;151.094;2022-12-07T00:25:47;98223.44;;;25.45;63.78
20793;BME280;10556;-33.662;151.094;2022-12-07T00:30:50;98215.44;;;25.53;59.78
20793;BME280;10556;-33.662;151.094;2022-12-07T00:35:56;98209.06;;;25.56;60.77
20793;BME280;10556;-33.662;151.094;2022-12-07T00:41:02;98200.41;;;25.55;60.15
20793;BME280;10556;-33.662;151.094;2022-12-07T00:46:06;98205.78;;;25.54;61.32
20793;BME280;10556;-33.662;151.094;2022-12-07T00:51:09;98208.78;;;25.44;60.95
20793;BME280;10556;-33.662;151.094;2022-12-07T00:56:16;98220.41;;;25.29;59.58
20793;BME280;10556;-33.662;151.094;2022-12-07T01:01:19;98212.97;;;25.19;63.73
20793;BME280;10556;-33.662;151.094;2022-12-07T01:06:23;98211.53;;;25.10;64.08
20793;BME280;10556;-33.662;151.094;2022-12-07T01:11:29;98215.09;;;24.96;64.17
20793;BME280;10556;-33.662;151.094;2022-12-07T01:16:33;98206.81;;;24.86;66.69
20793;BME280;10556;-33.662;151.094;2022-12-07T01:21:35;98193.34;;;24.75;68.26
20793;BME280;10556;-33.662;151.094;2022-12-07T01:26:40;98201.97;;;24.69;69.31
20793;BME280;10556;-33.662;151.094;2022-12-07T01:31:43;98212.75;;;24.60;69.89
20793;BME280;10556;-33.662;151.094;2022-12-07T01:36:45;98197.88;;;24.54;71.83
20793;BME280;10556;-33.662;151.094;2022-12-07T01:41:50;98197.66;;;24.49;69.93
20793;BME280;10556;-33.662;151.094;2022-12-07T01:46:54;98205.06;;;24.45;65.44
20793;BME280;10556;-33.662;151.094;2022-12-07T01:52:03;98187.00;;;24.44;61.06
20793;BME280;10556;-33.662;151.094;2022-12-07T01:57:11;98175.97;;;24.42;62.68
20793;BME280;10556;-33.662;151.094;2022-12-07T02:02:20;98172.38;;;24.43;59.81
20793;BME280;10556;-33.662;151.094;2022-12-07T02:07:24;98171.38;;;24.44;59.30
20793;BME280;10556;-33.662;151.094;2022-12-07T02:12:29;98156.59;;;24.51;59.50
20793;BME280;10556;-33.662;151.094;2022-12-07T02:17:39;98152.59;;;24.61;59.91
20793;BME280;10556;-33.662;151.094;2022-12-07T02:23:07;98148.00;;;24.70;58.79
20793;BME280;10556;-33.662;151.094;2022-12-07T02:28:26;98148.84;;;24.77;59.96
20793;BME280;10556;-33.662;151.094;2022-12-07T02:33:37;98141.25;;;24.82;61.99
20793;BME280;10556;-33.662;151.094;2022-12-07T02:38:49;98137.44;;;24.85;57.32
20793;BME280;10556;-33.662;151.094;2022-12-07T02:43:54;98112.03;;;24.93;59.22
20793;BME280;10556;-33.662;151.094;2022-12-07T02:49:00;98106.25;;;24.98;59.21
20793;BME280;10556;-33.662;151.094;2022-12-07T02:54:07;98104.66;;;25.03;59.83
20793;BME280;10556;-33.662;151.094;2022-12-07T02:59:22;98112.66;;;25.08;58.34
20793;BME280;10556;-33.662;151.094;2022-12-07T03:04:37;98102.22;;;25.15;58.83
20793;BME280;10556;-33.662;151.094;2022-12-07T03:09:46;98091.00;;;25.14;60.46
20793;BME280;10556;-33.662;151.094;2022-12-07T03:14:57;98087.00;;;25.12;61.44
20793;BME280;10556;-33.662;151.094;2022-12-07T03:20:07;98092.41;;;25.10;58.98
20793;BME280;10556;-33.662;151.094;2022-12-07T03:25:11;98097.81;;;25.09;60.15
20793;BME280;10556;-33.662;151.094;2022-12-07T03:30:17;98097.00;;;25.08;57.18
20793;BME280;10556;-33.662;151.094;2022-12-07T03:35:26;98086.97;;;25.05;55.62
20793;BME280;10556;-33.662;151.094;2022-12-07T03:40:33;98083.78;;;25.03;53.64
20793;BME280;10556;-33.662;151.094;2022-12-07T03:45:40;98094.00;;;25.05;57.30
20793;BME280;10556;-33.662;151.094;2022-12-07T03:50:48;98090.81;;;25.03;57.77
20793;BME280;10556;-33.662;151.094;2022-12-07T03:55:53;98086.41;;;25.03;58.68
20793;BME280;10556;-33.662;151.094;2022-12-07T04:00:56;98108.03;;;25.04;60.66
20793;BME280;10556;-33.662;151.094;2022-12-07T04:06:01;98087.38;;;25.02;58.43
20793;BME280;10556;-33.662;151.094;2022-12-07T04:11:04;98046.66;;;24.95;57.36
20793;BME280;10556;-33.662;151.094;2022-12-07T04:16:07;98046.25;;;24.91;54.79
20793;BME280;10556;-33.662;151.094;2022-12-07T04:21:11;98033.19;;;24.85;53.58
20793;BME280;10556;-33.662;151.094;2022-12-07T04:26:14;98033.19;;;24.78;49.45
20793;BME280;10556;-33.662;151.094;2022-12-07T04:31:16;97993.09;;;24.72;44.63
20793;BME280;10556;-33.662;151.094;2022-12-07T04:36:21;97984.47;;;24.72;43.08
20793;BME280;10556;-33.662;151.094;2022-12-07T04:41:24;97992.09;;;24.67;42.82
20793;BME280;10556;-33.662;151.094;2022-12-07T04:46:28;98008.13;;;24.64;43.39
20793;BME280;10556;-33.662;151.094;2022-12-07T04:51:33;97993.28;;;24.58;43.61
20793;BME280;10556;-33.662;151.094;2022-12-07T04:56:35;97998.28;;;24.53;43.95
20793;BME280;10556;-33.662;151.094;2022-12-07T05:01:38;97978.84;;;24.49;44.50
20793;BME280;10556;-33.662;151.094;2022-12-07T05:06:43;97972.03;;;24.48;45.00
20793;BME280;10556;-33.662;151.094;2022-12-07T05:11:45;97961.22;;;24.51;45.78
20793;BME280;10556;-33.662;151.094;2022-12-07T05:16:49;97943.78;;;24.51;46.59
20793;BME280;10556;-33.662;151.094;2022-12-07T05:21:53;97961.22;;;24.51;46.40
20793;BME280;10556;-33.662;151.094;2022-12-07T05:26:56;97949.59;;;24.47;47.27
20793;BME280;10556;-33.662;151.094;2022-12-07T05:31:58;97972.00;;;24.35;47.72
20793;BME280;10556;-33.662;151.094;2022-12-07T05:37:03;98004.03;;;24.22;49.52
20793;BME280;10556;-33.662;151.094;2022-12-07T05:42:06;98047.44;;;24.15;51.81
20793;BME280;10556;-33.662;151.094;2022-12-07T05:47:08;98058.78;;;24.01;51.87
20793;BME280;10556;-33.662;151.094;2022-12-07T05:52:13;98017.31;;;23.93;52.85
20793;BME280;10556;-33.662;151.094;2022-12-07T05:57:15;97973.81;;;23.80;54.30
20793;BME280;10556;-33.662;151.094;2022-12-07T06:02:18;97965.56;;;23.70;54.20
20793;BME280;10556;-33.662;151.094;2022-12-07T06:07:22;97950.34;;;23.67;55.22
20793;BME280;10556;-33.662;151.094;2022-12-07T06:12:25;97951.34;;;23.59;55.74
20793;BME280;10556;-33.662;151.094;2022-12-07T06:17:27;97940.69;;;23.54;55.82
20793;BME280;10556;-33.662;151.094;2022-12-07T06:22:32;97970.47;;;23.52;56.92
20793;BME280;10556;-33.662;151.094;2022-12-07T06:27:35;97983.47;;;23.45;56.59
20793;BME280;10556;-33.662;151.094;2022-12-07T06:32:37;97983.97;;;23.40;57.24
20793;BME280;10556;-33.662;151.094;2022-12-07T06:37:44;97942.38;;;23.34;58.84
20793;BME280;10556;-33.662;151.094;2022-12-07T06:42:47;97944.91;;;23.27;58.22
20793;BME280;10556;-33.662;151.094;2022-12-07T06:47:49;97986.28;;;23.22;59.49
20793;BME280;10556;-33.662;151.094;2022-12-07T06:52:54;98012.41;;;23.14;63.48
20793;BME280;10556;-33.662;151.094;2022-12-07T06:57:56;97988.56;;;23.04;65.58
20793;BME280;10556;-33.662;151.094;2022-12-07T07:02:59;97946.91;;;22.97;66.77
20793;BME280;10556;-33.662;151.094;2022-12-07T07:08:03;97872.13;;;22.86;69.45
20793;BME280;10556;-33.662;151.094;2022-12-07T07:13:06;97964.22;;;22.84;68.27
20793;BME280;10556;-33.662;151.094;2022-12-07T07:18:08;97981.16;;;22.80;69.05
20793;BME280;10556;-33.662;151.094;2022-12-07T07:23:13;97972.94;;;22.76;69.85
20793;BME280;10556;-33.662;151.094;2022-12-07T07:28:16;97960.53;;;22.72;71.26
20793;BME280;10556;-33.662;151.094;2022-12-07T07:33:18;97965.91;;;22.70;71.47
20793;BME280;10556;-33.662;151.094;2022-12-07T07:38:23;97984.22;;;22.69;71.97
20793;BME280;10556;-33.662;151.094;2022-12-07T07:43:25;97995.97;;;22.65;72.32
20793;BME280;10556;-33.662;151.094;2022-12-07T07:48:28;97995.38;;;22.63;72.90
20793;BME280;10556;-33.662;151.094;2022-12-07T07:53:32;97973.00;;;22.61;73.38
20793;BME280;10556;-33.662;151.094;2022-12-07T07:58:35;97963.00;;;22.58;72.76
20793;BME280;10556;-33.662;151.094;2022-12-07T08:03:38;97956.34;;;22.56;73.60
20793;BME280;10556;-33.662;151.094;2022-12-07T08:08:42;97929.16;;;22.52;74.97
20793;BME280;10556;-33.662;151.094;2022-12-07T08:13:46;97985.88;;;22.48;75.25
20793;BME280;10556;-33.662;151.094;2022-12-07T08:18:49;97943.88;;;22.45;75.51
20793;BME280;10556;-33.662;151.094;2022-12-07T08:23:53;97994.94;;;22.38;76.74
20793;BME280;10556;-33.662;151.094;2022-12-07T08:28:56;98044.44;;;22.36;77.71
20793;BME280;10556;-33.662;151.094;2022-12-07T08:33:59;98034.44;;;22.33;78.85
20793;BME280;10556;-33.662;151.094;2022-12-07T08:39:03;98024.94;;;22.26;79.98
20793;BME280;10556;-33.662;151.094;2022-12-07T08:44:09;98009.47;;;22.17;81.77
20793;BME280;10556;-33.662;151.094;2022-12-07T08:49:13;97982.69;;;22.10;81.71
20793;BME280;10556;-33.662;151.094;2022-12-07T08:54:20;97946.44;;;22.02;82.23
20793;BME280;10556;-33.662;151.094;2022-12-07T08:59:24;97974.56;;;21.99;82.82
20793;BME280;10556;-33.662;151.094;2022-12-07T09:04:26;97944.94;;;21.93;82.12
20793;BME280;10556;-33.662;151.094;2022-12-07T09:09:31;97941.72;;;21.91;83.09
20793;BME280;10556;-33.662;151.094;2022-12-07T09:14:33;97958.25;;;21.90;82.23
20793;BME280;10556;-33.662;151.094;2022-12-07T09:19:36;97979.19;;;21.89;81.81
20793;BME280;10556;-33.662;151.094;2022-12-07T09:24:41;97978.59;;;21.87;81.24
20793;BME280;10556;-33.662;151.094;2022-12-07T09:29:44;97951.56;;;21.81;80.39
20793;BME280;10556;-33.662;151.094;2022-12-07T09:34:46;97931.16;;;21.78;82.33
20793;BME280;10556;-33.662;151.094;2022-12-07T09:39:51;97846.28;;;21.65;87.61
20793;BME280;10556;-33.662;151.094;2022-12-07T09:44:53;97900.84;;;21.57;87.80
20793;BME280;10556;-33.662;151.094;2022-12-07T09:50:00;97925.50;;;21.53;86.33
20793;BME280;10556;-33.662;151.094;2022-12-07T09:55:11;97955.63;;;21.54;85.49
20793;BME280;10556;-33.662;151.094;2022-12-07T10:00:17;97976.34;;;21.54;85.42
20793;BME280;10556;-33.662;151.094;2022-12-07T10:05:23;97977.53;;;21.52;86.83
20793;BME280;10556;-33.662;151.094;2022-12-07T10:10:31;97959.28;;;21.45;88.14
20793;BME280;10556;-33.662;151.094;2022-12-07T10:15:47;97930.88;;;21.37;88.90
20793;BME280;10556;-33.662;151.094;2022-12-07T10:20:50;97942.66;;;21.25;91.07
20793;BME280;10556;-33.662;151.094;2022-12-07T10:26:20;97897.38;;;21.21;91.24
20793;BME280;10556;-33.662;151.094;2022-12-07T10:31:27;97938.53;;;21.16;92.83
20793;BME280;10556;-33.662;151.094;2022-12-07T10:36:36;97949.25;;;21.13;93.13
20793;BME280;10556;-33.662;151.094;2022-12-07T10:41:53;97956.56;;;21.09;92.78
20793;BME280;10556;-33.662;151.094;2022-12-07T10:52:48;97951.97;;;20.97;94.75
20793;BME280;10556;-33.662;151.094;2022-12-07T10:58:13;97932.44;;;20.94;93.76
20793;BME280;10556;-33.662;151.094;2022-12-07T11:03:42;97916.91;;;20.94;93.46
20793;BME280;10556;-33.662;151.094;2022-12-07T11:08:59;97945.38;;;20.94;94.24
20793;BME280;10556;-33.662;151.094;2022-12-07T11:14:14;97949.94;;;20.92;94.49
20793;BME280;10556;-33.662;151.094;2022-12-07T11:19:42;97959.84;;;20.88;92.45
20793;BME280;10556;-33.662;151.094;2022-12-07T11:24:54;97951.91;;;20.90;91.14
20793;BME280;10556;-33.662;151.094;2022-12-07T11:30:13;97944.31;;;20.88;90.71
20793;BME280;10556;-33.662;151.094;2022-12-07T11:35:26;97940.91;;;20.88;91.85
20793;BME280;10556;-33.662;151.094;2022-12-07T11:40:33;97940.91;;;20.88;90.87
20793;BME280;10556;-33.662;151.094;2022-12-07T11:45:42;97941.06;;;20.86;91.40
20793;BME280;10556;-33.662;151.094;2022-12-07T11:50:49;97952.22;;;20.87;90.18
20793;BME280;10556;-33.662;151.094;2022-12-07T11:55:56;97948.84;;;20.86;89.45
20793;BME280;10556;-33.662;151.094;2022-12-07T12:06:26;97916.88;;;20.79;86.75
20793;BME280;10556;-33.662;151.094;2022-12-07T12:11:42;97942.13;;;20.77;87.17
20793;BME280;10556;-33.662;151.094;2022-12-07T12:22:20;97953.19;;;20.71;88.31
20793;BME280;10556;-33.662;151.094;2022-12-07T12:27:27;97935.25;;;20.70;88.28
20793;BME280;10556;-33.662;151.094;2022-12-07T12:32:38;97933.78;;;20.67;88.81
20793;BME280;10556;-33.662;151.094;2022-12-07T12:37:43;97964.09;;;20.67;89.37
20793;BME280;10556;-33.662;151.094;2022-12-07T12:42:47;97962.28;;;20.67;89.32
20793;BME280;10556;-33.662;151.094;2022-12-07T12:48:00;97958.25;;;20.65;89.60
20793;BME280;10556;-33.662;151.094;2022-12-07T12:53:15;97971.72;;;20.60;89.42
20793;BME280;10556;-33.662;151.094;2022-12-07T12:58:31;97981.09;;;20.61;89.70
20793;BME280;10556;-33.662;151.094;2022-12-07T13:03:36;97988.41;;;20.58;91.08
20793;BME280;10556;-33.662;151.094;2022-12-07T13:08:41;97980.47;;;20.59;91.06
20793;BME280;10556;-33.662;151.094;2022-12-07T13:13:44;97965.09;;;20.58;91.74
20793;BME280;10556;-33.662;151.094;2022-12-07T13:18:48;97956.88;;;20.54;92.28
20793;BME280;10556;-33.662;151.094;2022-12-07T13:23:57;97929.56;;;20.52;93.08
20793;BME280;10556;-33.662;151.094;2022-12-07T13:29:10;97919.56;;;20.49;92.97
20793;BME280;10556;-33.662;151.094;2022-12-07T13:34:32;97913.56;;;20.48;93.40
20793;BME280;10556;-33.662;151.094;2022-12-07T13:39:35;97918.13;;;20.46;94.67
20793;BME280;10556;-33.662;151.094;2022-12-07T13:44:46;97919.28;;;20.43;96.70
20793;BME280;10556;-33.662;151.094;2022-12-07T13:49:52;97934.34;;;20.40;97.55
20793;BME280;10556;-33.662;151.094;2022-12-07T13:54:58;97942.78;;;20.34;99.11
20793;BME280;10556;-33.662;151.094;2022-12-07T14:00:01;97947.84;;;20.27;100.00
20793;BME280;10556;-33.662;151.094;2022-12-07T14:05:14;97936.56;;;20.20;100.00
20793;BME280;10556;-33.662;151.094;2022-12-07T14:10:27;97935.13;;;20.18;100.00
20793;BME280;10556;-33.662;151.094;2022-12-07T14:15:30;97942.88;;;20.18;100.00
20793;BME280;10556;-33.662;151.094;2022-12-07T14:20:36;97939.19;;;20.12;100.00
20793;BME280;10556;-33.662;151.094;2022-12-07T14:25:50;97933.09;;;20.05;100.00
20793;BME280;10556;-33.662;151.094;2022-12-07T14:30:53;97935.06;;;20.03;100.00
20793;BME280;10556;-33.662;151.094;2022-12-07T14:35:57;97929.44;;;19.99;100.00
20793;BME280;10556;-33.662;151.094;2022-12-07T14:41:00;97928.25;;;20.02;100.00
20793;BME280;10556;-33.662;151.094;2022-12-07T14:46:03;97925.22;;;19.98;100.00
20793;BME280;10556;-33.662;151.094;2022-12-07T14:51:09;97924.56;;;19.96;100.00
20793;BME280;10556;-33.662;151.094;2022-12-07T14:56:14;97939.47;;;19.94;100.00
20793;BME280;10556;-33.662;151.094;2022-12-07T15:01:16;97945.78;;;19.92;100.00
20793;BME280;10556;-33.662;151.094;2022-12-07T15:06:21;97941.75;;;19.89;100.00
20793;BME280;10556;-33.662;151.094;2022-12-07T15:11:23;97936.75;;;19.88;100.00
20793;BME280;10556;-33.662;151.094;2022-12-07T15:16:26;97920.28;;;19.89;100.00
20793;BME280;10556;-33.662;151.094;2022-12-07T15:21:31;97917.03;;;19.87;100.00
20793;BME280;10556;-33.662;151.094;2022-12-07T15:26:33;97916.13;;;19.80;100.00
20793;BME280;10556;-33.662;151.094;2022-12-07T15:31:36;97922.59;;;19.76;100.00
20793;BME280;10556;-33.662;151.094;2022-12-07T15:36:40;97922.78;;;19.74;100.00
20793;BME280;10556;-33.662;151.094;2022-12-07T15:41:43;97927.28;;;19.72;100.00
20793;BME280;10556;-33.662;151.094;2022-12-07T15:46:45;97915.53;;;19.70;100.00
20793;BME280;10556;-33.662;151.094;2022-12-07T15:51:50;97911.66;;;19.66;100.00
20793;BME280;10556;-33.662;151.094;2022-12-07T15:56:53;97912.47;;;19.66;100.00
20793;BME280;10556;-33.662;151.094;2022-12-07T16:01:56;97909.09;;;19.66;100.00
20793;BME280;10556;-33.662;151.094;2022-12-07T16:07:00;97906.00;;;19.62;100.00
20793;BME280;10556;-33.662;151.094;2022-12-07T16:12:03;97896.19;;;19.57;100.00
20793;BME280;10556;-33.662;151.094;2022-12-07T16:17:05;97916.03;;;19.57;100.00
20793;BME280;10556;-33.662;151.094;2022-12-07T16:22:10;97912.19;;;19.53;100.00
20793;BME280;10556;-33.662;151.094;2022-12-07T16:27:13;97908.19;;;19.50;100.00
20793;BME280;10556;-33.662;151.094;2022-12-07T16:32:16;97924.19;;;19.46;100.00
20793;BME280;10556;-33.662;151.094;2022-12-07T16:37:20;97920.31;;;19.42;100.00
20793;BME280;10556;-33.662;151.094;2022-12-07T16:42:22;97926.44;;;19.41;100.00
20793;BME280;10556;-33.662;151.094;2022-12-07T16:47:25;97923.03;;;19.40;100.00
20793;BME280;10556;-33.662;151.094;2022-12-07T16:52:38;97928.22;;;19.40;100.00
20793;BME280;10556;-33.662;151.094;2022-12-07T16:57:43;97931.13;;;19.37;100.00
20793;BME280;10556;-33.662;151.094;2022-12-07T17:02:45;97930.94;;;19.39;100.00
20793;BME280;10556;-33.662;151.094;2022-12-07T17:07:50;97933.88;;;19.44;100.00
20793;BME280;10556;-33.662;151.094;2022-12-07T17:12:54;97943.72;;;19.48;100.00
20793;BME280;10556;-33.662;151.094;2022-12-07T17:17:57;97945.16;;;19.51;100.00
20793;BME280;10556;-33.662;151.094;2022-12-07T17:23:02;97951.47;;;19.48;100.00
20793;BME280;10556;-33.662;151.094;2022-12-07T17:28:05;97949.69;;;19.41;100.00
20793;BME280;10556;-33.662;151.094;2022-12-07T17:33:08;97954.38;;;19.37;100.00
20793;BME280;10556;-33.662;151.094;2022-12-07T17:38:12;97955.34;;;19.36;100.00
20793;BME280;10556;-33.662;151.094;2022-12-07T17:43:15;97965.03;;;19.34;100.00
20793;BME280;10556;-33.662;151.094;2022-12-07T17:48:17;97963.75;;;19.30;100.00
20793;BME280;10556;-33.662;151.094;2022-12-07T17:53:22;97961.53;;;19.27;100.00
20793;BME280;10556;-33.662;151.094;2022-12-07T17:58:24;97962.63;;;19.25;100.00
20793;BME280;10556;-33.662;151.094;2022-12-07T18:03:27;97968.31;;;19.20;100.00
20793;BME280;10556;-33.662;151.094;2022-12-07T18:08:35;97979.28;;;19.14;100.00
20793;BME280;10556;-33.662;151.094;2022-12-07T18:13:37;97987.53;;;19.09;100.00
20793;BME280;10556;-33.662;151.094;2022-12-07T18:18:40;97991.59;;;19.04;100.00
20793;BME280;10556;-33.662;151.094;2022-12-07T18:23:46;98004.81;;;19.01;100.00
20793;BME280;10556;-33.662;151.094;2022-12-07T18:28:49;98005.13;;;18.98;100.00
20793;BME280;10556;-33.662;151.094;2022-12-07T18:33:51;98002.09;;;18.94;100.00
20793;BME280;10556;-33.662;151.094;2022-12-07T18:38:56;98002.72;;;18.88;100.00
20793;BME280;10556;-33.662;151.094;2022-12-07T18:43:58;98005.44;;;18.87;100.00
20793;BME280;10556;-33.662;151.094;2022-12-07T18:49:01;98017.06;;;18.83;100.00
20793;BME280;10556;-33.662;151.094;2022-12-07T18:54:06;98015.59;;;18.80;100.00
20793;BME280;10556;-33.662;151.094;2022-12-07T18:59:13;98038.34;;;18.77;100.00
20793;BME280;10556;-33.662;151.094;2022-12-07T19:04:15;98049.16;;;18.72;100.00
20793;BME280;10556;-33.662;151.094;2022-12-07T19:09:20;98064.97;;;18.69;100.00
20793;BME280;10556;-33.662;151.094;2022-12-07T19:14:25;98075.31;;;18.69;100.00
20793;BME280;10556;-33.662;151.094;2022-12-07T19:19:30;98083.66;;;18.71;100.00
20793;BME280;10556;-33.662;151.094;2022-12-07T19:24:35;98090.94;;;18.76;100.00
20793;BME280;10556;-33.662;151.094;2022-12-07T19:29:37;98102.59;;;18.80;100.00
20793;BME280;10556;-33.662;151.094;2022-12-07T19:34:41;98101.94;;;18.86;100.00
20793;BME280;10556;-33.662;151.094;2022-12-07T19:39:47;98109.19;;;18.90;100.00
20793;BME280;10556;-33.662;151.094;2022-12-07T19:44:49;98114.34;;;18.90;100.00
20793;BME280;10556;-33.662;151.094;2022-12-07T19:49:52;98130.19;;;18.95;100.00
20793;BME280;10556;-33.662;151.094;2022-12-07T19:54:57;98135.53;;;19.02;100.00
20793;BME280;10556;-33.662;151.094;2022-12-07T20:00:00;98158.75;;;19.10;100.00
20793;BME280;10556;-33.662;151.094;2022-12-07T20:05:02;98159.75;;;19.17;100.00
20793;BME280;10556;-33.662;151.094;2022-12-07T20:10:08;98174.44;;;19.25;98.83
20793;BME280;10556;-33.662;151.094;2022-12-07T20:15:10;98177.22;;;19.31;93.47
20793;BME280;10556;-33.662;151.094;2022-12-07T20:20:13;98190.75;;;19.33;83.30
20793;BME280;10556;-33.662;151.094;2022-12-07T20:25:18;98201.09;;;19.33;74.58
20793;BME280;10556;-33.662;151.094;2022-12-07T20:30:20;98204.81;;;19.31;71.89
20793;BME280;10556;-33.662;151.094;2022-12-07T20:35:23;98207.88;;;19.26;67.38
20793;BME280;10556;-33.662;151.094;2022-12-07T20:40:27;98213.19;;;19.25;65.94
20793;BME280;10556;-33.662;151.094;2022-12-07T20:45:30;98218.06;;;19.28;65.43
20793;BME280;10556;-33.662;151.094;2022-12-07T20:50:32;98210.63;;;19.33;64.68
20793;BME280;10556;-33.662;151.094;2022-12-07T20:55:37;98221.28;;;19.38;62.90
20793;BME280;10556;-33.662;151.094;2022-12-07T21:00:39;98226.16;;;19.41;62.97
20793;BME280;10556;-33.662;151.094;2022-12-07T21:05:42;98226.78;;;19.43;61.31
20793;BME280;10556;-33.662;151.094;2022-12-07T21:10:46;98236.84;;;19.46;60.03
20793;BME280;10556;-33.662;151.094;2022-12-07T21:15:49;98235.69;;;19.48;59.35
20793;BME280;10556;-33.662;151.094;2022-12-07T21:20:51;98248.13;;;19.53;59.08
20793;BME280;10556;-33.662;151.094;2022-12-07T21:25:56;98282.06;;;19.58;57.08
20793;BME280;10556;-33.662;151.094;2022-12-07T21:30:58;98268.66;;;19.63;56.84
20793;BME280;10556;-33.662;151.094;2022-12-07T21:36:02;98273.06;;;19.70;54.46
20793;BME280;10556;-33.662;151.094;2022-12-07T21:41:13;98263.50;;;19.79;53.81
20793;BME280;10556;-33.662;151.094;2022-12-07T21:46:17;98267.88;;;19.86;51.83
20793;BME280;10556;-33.662;151.094;2022-12-07T21:51:21;98267.88;;;19.94;49.17
20793;BME280;10556;-33.662;151.094;2022-12-07T21:56:27;98275.78;;;20.01;49.24
20793;BME280;10556;-33.662;151.094;2022-12-07T22:01:32;98276.91;;;20.07;46.24
20793;BME280;10556;-33.662;151.094;2022-12-07T22:06:35;98289.19;;;20.21;46.82
20793;BME280;10556;-33.662;151.094;2022-12-07T22:11:39;98289.19;;;20.29;46.89
20793;BME280;10556;-33.662;151.094;2022-12-07T22:16:42;98287.91;;;20.41;44.75
20793;BME280;10556;-33.662;151.094;2022-12-07T22:21:44;98292.91;;;20.51;45.25
20793;BME280;10556;-33.662;151.094;2022-12-07T22:26:49;98299.53;;;20.61;45.06
20793;BME280;10556;-33.662;151.094;2022-12-07T22:31:51;98303.03;;;20.76;45.21
20793;BME280;10556;-33.662;151.094;2022-12-07T22:36:54;98301.53;;;20.90;44.15
20793;BME280;10556;-33.662;151.094;2022-12-07T22:41:58;98297.59;;;21.02;42.21
20793;BME280;10556;-33.662;151.094;2022-12-07T22:47:01;98289.13;;;21.16;41.62
20793;BME280;10556;-33.662;151.094;2022-12-07T22:52:04;98290.19;;;21.30;40.87
20793;BME280;10556;-33.662;151.094;2022-12-07T22:57:08;98287.22;;;21.41;40.13
20793;BME280;10556;-33.662;151.094;2022-12-07T23:02:11;98296.06;;;21.55;37.44
20793;BME280;10556;-33.662;151.094;2022-12-07T23:07:13;98291.63;;;21.63;39.26
20793;BME280;10556;-33.662;151.094;2022-12-07T23:12:18;98306.63;;;21.76;40.71
20793;BME280;10556;-33.662;151.094;2022-12-07T23:17:20;98283.50;;;21.89;40.14
20793;BME280;10556;-33.662;151.094;2022-12-07T23:22:23;98300.75;;;22.05;40.19
20793;BME280;10556;-33.662;151.094;2022-12-07T23:27:27;98311.78;;;22.22;40.28
20793;BME280;10556;-33.662;151.094;2022-12-07T23:32:30;98317.91;;;22.29;39.25
20793;BME280;10556;-33.662;151.094;2022-12-07T23:37:32;98309.78;;;22.46;40.32
20793;BME280;10556;-33.662;151.094;2022-12-07T23:42:37;98315.34;;;22.58;38.73
20793;BME280;10556;-33.662;151.094;2022-12-07T23:47:39;98301.63;;;22.64;38.45
20793;BME280;10556;-33.662;151.094;2022-12-07T23:52:42;98293.28;;;22.77;39.39
20793;BME280;10556;-33.662;151.094;2022-12-07T23:57:46;98300.84;;;22.93;40.60
